sensor_id;sensor_type;location;lat;lon;timestamp;temperature;humidity
74294;DHT22;62688;59.904;10.738;2022-09-09T00:02:19;16.80;50.00
74294;DHT22;62688;59.904;10.738;2022-09-09T00:05:19;16.80;50.40
74294;DHT22;62688;59.904;10.738;2022-09-09T00:07:52;16.80;50.20
74294;DHT22;62688;59.904;10.738;2022-09-09T00:10:42;16.80;50.00
74294;DHT22;62688;59.904;10.738;2022-09-09T00:13:41;16.80;50.30
74294;DHT22;62688;59.904;10.738;2022-09-09T00:21:50;16.70;50.50
74294;DHT22;62688;59.904;10.738;2022-09-09T00:24:28;16.70;50.70
74294;DHT22;62688;59.904;10.738;2022-09-09T00:29:51;16.60;50.60
74294;DHT22;62688;59.904;10.738;2022-09-09T00:32:20;16.60;50.30
74294;DHT22;62688;59.904;10.738;2022-09-09T00:37:52;16.60;51.10
74294;DHT22;62688;59.904;10.738;2022-09-09T00:40:45;16.60;50.70
74294;DHT22;62688;59.904;10.738;2022-09-09T00:43:19;16.60;51.40
74294;DHT22;62688;59.904;10.738;2022-09-09T00:51:50;16.60;51.00
74294;DHT22;62688;59.904;10.738;2022-09-09T00:54:44;16.50;51.60
74294;DHT22;62688;59.904;10.738;2022-09-09T01:08:02;16.50;51.90
74294;DHT22;62688;59.904;10.738;2022-09-09T01:10:49;16.50;51.60
74294;DHT22;62688;59.904;10.738;2022-09-09T01:13:24;16.50;52.00
74294;DHT22;62688;59.904;10.738;2022-09-09T01:15:50;16.50;51.40
74294;DHT22;62688;59.904;10.738;2022-09-09T01:18:21;16.50;51.30
74294;DHT22;62688;59.904;10.738;2022-09-09T01:26:45;16.50;51.70
74294;DHT22;62688;59.904;10.738;2022-09-09T01:29:17;16.50;51.50
74294;DHT22;62688;59.904;10.738;2022-09-09T01:31:58;16.50;51.70
74294;DHT22;62688;59.904;10.738;2022-09-09T01:34:27;16.40;51.90
74294;DHT22;62688;59.904;10.738;2022-09-09T01:39:30;16.40;51.80
74294;DHT22;62688;59.904;10.738;2022-09-09T01:41:57;16.40;51.60
74294;DHT22;62688;59.904;10.738;2022-09-09T01:44:23;16.40;51.90
74294;DHT22;62688;59.904;10.738;2022-09-09T01:46:50;16.40;51.80
74294;DHT22;62688;59.904;10.738;2022-09-09T01:49:16;16.30;51.80
74294;DHT22;62688;59.904;10.738;2022-09-09T01:51:43;16.40;52.00
74294;DHT22;62688;59.904;10.738;2022-09-09T01:54:10;16.30;52.10
74294;DHT22;62688;59.904;10.738;2022-09-09T01:56:58;16.40;52.20
74294;DHT22;62688;59.904;10.738;2022-09-09T02:00:21;16.30;52.30
74294;DHT22;62688;59.904;10.738;2022-09-09T02:05:38;16.30;52.30
74294;DHT22;62688;59.904;10.738;2022-09-09T02:08:13;16.30;52.00
74294;DHT22;62688;59.904;10.738;2022-09-09T02:10:46;16.30;52.00
74294;DHT22;62688;59.904;10.738;2022-09-09T02:13:17;16.30;52.40
74294;DHT22;62688;59.904;10.738;2022-09-09T02:16:00;16.30;52.50
74294;DHT22;62688;59.904;10.738;2022-09-09T02:18:48;16.30;52.50
74294;DHT22;62688;59.904;10.738;2022-09-09T02:21:17;16.30;52.50
74294;DHT22;62688;59.904;10.738;2022-09-09T02:23:45;16.30;52.30
74294;DHT22;62688;59.904;10.738;2022-09-09T02:26:13;16.30;52.60
74294;DHT22;62688;59.904;10.738;2022-09-09T02:28:46;16.30;52.40
74294;DHT22;62688;59.904;10.738;2022-09-09T02:31:14;16.20;52.60
74294;DHT22;62688;59.904;10.738;2022-09-09T02:33:45;16.20;52.50
74294;DHT22;62688;59.904;10.738;2022-09-09T02:36:14;16.20;52.50
74294;DHT22;62688;59.904;10.738;2022-09-09T02:38:45;16.30;52.70
74294;DHT22;62688;59.904;10.738;2022-09-09T02:41:19;16.20;52.90
74294;DHT22;62688;59.904;10.738;2022-09-09T02:43:47;16.20;52.80
74294;DHT22;62688;59.904;10.738;2022-09-09T02:49:14;16.20;53.00
74294;DHT22;62688;59.904;10.738;2022-09-09T02:56:43;16.20;52.90
74294;DHT22;62688;59.904;10.738;2022-09-09T02:59:11;16.20;52.90
74294;DHT22;62688;59.904;10.738;2022-09-09T03:01:37;16.10;52.90
74294;DHT22;62688;59.904;10.738;2022-09-09T03:04:05;16.10;52.90
74294;DHT22;62688;59.904;10.738;2022-09-09T03:06:31;16.10;53.00
74294;DHT22;62688;59.904;10.738;2022-09-09T03:08:56;16.10;53.20
74294;DHT22;62688;59.904;10.738;2022-09-09T03:11:26;16.10;53.10
74294;DHT22;62688;59.904;10.738;2022-09-09T03:13:53;16.10;53.20
74294;DHT22;62688;59.904;10.738;2022-09-09T03:16:21;16.00;53.20
74294;DHT22;62688;59.904;10.738;2022-09-09T03:18:47;16.10;53.30
74294;DHT22;62688;59.904;10.738;2022-09-09T03:21:12;16.10;53.40
74294;DHT22;62688;59.904;10.738;2022-09-09T03:23:39;16.00;53.40
74294;DHT22;62688;59.904;10.738;2022-09-09T03:26:04;16.00;53.40
74294;DHT22;62688;59.904;10.738;2022-09-09T03:28:30;16.00;53.40
74294;DHT22;62688;59.904;10.738;2022-09-09T03:31:04;15.90;53.40
74294;DHT22;62688;59.904;10.738;2022-09-09T03:33:36;15.90;53.80
74294;DHT22;62688;59.904;10.738;2022-09-09T03:36:02;15.90;53.60
74294;DHT22;62688;59.904;10.738;2022-09-09T03:38:28;15.90;53.70
74294;DHT22;62688;59.904;10.738;2022-09-09T03:40:55;15.90;53.60
74294;DHT22;62688;59.904;10.738;2022-09-09T03:43:23;15.90;53.80
74294;DHT22;62688;59.904;10.738;2022-09-09T03:45:50;15.90;53.80
74294;DHT22;62688;59.904;10.738;2022-09-09T03:48:16;15.80;53.70
74294;DHT22;62688;59.904;10.738;2022-09-09T03:50:52;15.80;53.80
74294;DHT22;62688;59.904;10.738;2022-09-09T03:53:21;15.80;53.90
74294;DHT22;62688;59.904;10.738;2022-09-09T03:55:50;15.80;53.90
74294;DHT22;62688;59.904;10.738;2022-09-09T03:58:20;15.80;54.10
74294;DHT22;62688;59.904;10.738;2022-09-09T04:01:05;15.80;54.00
74294;DHT22;62688;59.904;10.738;2022-09-09T04:03:32;15.70;54.70
74294;DHT22;62688;59.904;10.738;2022-09-09T04:05:59;15.80;54.10
74294;DHT22;62688;59.904;10.738;2022-09-09T04:08:25;15.70;54.20
74294;DHT22;62688;59.904;10.738;2022-09-09T04:10:51;15.70;54.20
74294;DHT22;62688;59.904;10.738;2022-09-09T04:13:18;15.70;54.10
74294;DHT22;62688;59.904;10.738;2022-09-09T04:15:53;15.70;54.80
74294;DHT22;62688;59.904;10.738;2022-09-09T04:18:20;15.60;54.40
74294;DHT22;62688;59.904;10.738;2022-09-09T04:20:47;15.60;54.20
74294;DHT22;62688;59.904;10.738;2022-09-09T04:23:13;15.60;54.40
74294;DHT22;62688;59.904;10.738;2022-09-09T04:25:47;15.60;54.40
74294;DHT22;62688;59.904;10.738;2022-09-09T04:28:37;15.50;54.50
74294;DHT22;62688;59.904;10.738;2022-09-09T04:31:08;15.50;54.80
74294;DHT22;62688;59.904;10.738;2022-09-09T04:33:35;15.50;55.10
74294;DHT22;62688;59.904;10.738;2022-09-09T04:36:01;15.40;54.60
74294;DHT22;62688;59.904;10.738;2022-09-09T04:38:27;15.40;54.60
74294;DHT22;62688;59.904;10.738;2022-09-09T04:40:52;15.40;54.60
74294;DHT22;62688;59.904;10.738;2022-09-09T04:43:20;15.30;54.70
74294;DHT22;62688;59.904;10.738;2022-09-09T04:45:50;15.30;54.90
74294;DHT22;62688;59.904;10.738;2022-09-09T04:48:16;15.30;55.00
74294;DHT22;62688;59.904;10.738;2022-09-09T04:50:42;15.20;55.00
74294;DHT22;62688;59.904;10.738;2022-09-09T04:53:08;15.20;55.10
74294;DHT22;62688;59.904;10.738;2022-09-09T04:55:34;15.20;55.20
74294;DHT22;62688;59.904;10.738;2022-09-09T04:58:07;15.10;55.50
74294;DHT22;62688;59.904;10.738;2022-09-09T05:00:34;15.10;55.70
74294;DHT22;62688;59.904;10.738;2022-09-09T05:03:04;15.10;55.60
74294;DHT22;62688;59.904;10.738;2022-09-09T05:05:31;15.10;55.80
74294;DHT22;62688;59.904;10.738;2022-09-09T05:08:08;15.10;55.60
74294;DHT22;62688;59.904;10.738;2022-09-09T05:10:36;15.10;56.00
74294;DHT22;62688;59.904;10.738;2022-09-09T05:13:03;15.10;55.60
74294;DHT22;62688;59.904;10.738;2022-09-09T05:15:30;15.10;55.60
74294;DHT22;62688;59.904;10.738;2022-09-09T05:17:58;15.10;55.60
74294;DHT22;62688;59.904;10.738;2022-09-09T05:20:24;15.10;55.80
74294;DHT22;62688;59.904;10.738;2022-09-09T05:22:53;15.10;55.80
74294;DHT22;62688;59.904;10.738;2022-09-09T05:25:19;15.10;55.90
74294;DHT22;62688;59.904;10.738;2022-09-09T05:27:45;15.20;55.90
74294;DHT22;62688;59.904;10.738;2022-09-09T05:30:11;15.20;56.70
74294;DHT22;62688;59.904;10.738;2022-09-09T05:32:36;15.20;56.00
74294;DHT22;62688;59.904;10.738;2022-09-09T05:35:02;15.20;56.00
74294;DHT22;62688;59.904;10.738;2022-09-09T05:37:28;15.30;56.00
74294;DHT22;62688;59.904;10.738;2022-09-09T05:39:55;15.30;55.90
74294;DHT22;62688;59.904;10.738;2022-09-09T05:42:21;15.30;56.00
74294;DHT22;62688;59.904;10.738;2022-09-09T05:44:47;15.40;55.90
74294;DHT22;62688;59.904;10.738;2022-09-09T05:47:12;15.40;55.80
74294;DHT22;62688;59.904;10.738;2022-09-09T05:49:38;15.40;55.70
74294;DHT22;62688;59.904;10.738;2022-09-09T05:52:03;15.40;55.80
74294;DHT22;62688;59.904;10.738;2022-09-09T05:54:30;15.50;55.60
74294;DHT22;62688;59.904;10.738;2022-09-09T05:56:55;15.50;55.50
74294;DHT22;62688;59.904;10.738;2022-09-09T05:59:21;15.50;55.60
74294;DHT22;62688;59.904;10.738;2022-09-09T06:01:48;15.50;55.50
74294;DHT22;62688;59.904;10.738;2022-09-09T06:04:14;15.50;55.40
74294;DHT22;62688;59.904;10.738;2022-09-09T06:06:40;15.50;55.50
74294;DHT22;62688;59.904;10.738;2022-09-09T06:09:08;15.50;55.80
74294;DHT22;62688;59.904;10.738;2022-09-09T06:11:37;15.50;55.60
74294;DHT22;62688;59.904;10.738;2022-09-09T06:14:03;15.50;55.70
74294;DHT22;62688;59.904;10.738;2022-09-09T06:16:30;15.50;55.50
74294;DHT22;62688;59.904;10.738;2022-09-09T06:18:58;15.50;55.50
74294;DHT22;62688;59.904;10.738;2022-09-09T06:21:48;15.50;55.40
74294;DHT22;62688;59.904;10.738;2022-09-09T06:24:15;15.50;55.30
74294;DHT22;62688;59.904;10.738;2022-09-09T06:26:42;15.50;55.40
74294;DHT22;62688;59.904;10.738;2022-09-09T06:29:10;15.50;55.40
74294;DHT22;62688;59.904;10.738;2022-09-09T06:31:36;15.50;55.40
74294;DHT22;62688;59.904;10.738;2022-09-09T06:34:05;15.50;55.40
74294;DHT22;62688;59.904;10.738;2022-09-09T06:36:33;15.60;55.50
74294;DHT22;62688;59.904;10.738;2022-09-09T06:39:00;15.60;55.60
74294;DHT22;62688;59.904;10.738;2022-09-09T06:41:27;15.60;55.50
74294;DHT22;62688;59.904;10.738;2022-09-09T06:43:53;15.70;55.50
74294;DHT22;62688;59.904;10.738;2022-09-09T06:46:23;15.70;55.40
74294;DHT22;62688;59.904;10.738;2022-09-09T06:48:53;15.80;55.30
74294;DHT22;62688;59.904;10.738;2022-09-09T06:51:22;15.80;55.10
74294;DHT22;62688;59.904;10.738;2022-09-09T06:53:50;15.90;55.00
74294;DHT22;62688;59.904;10.738;2022-09-09T06:58:42;16.00;54.80
74294;DHT22;62688;59.904;10.738;2022-09-09T07:01:10;16.10;54.80
74294;DHT22;62688;59.904;10.738;2022-09-09T07:03:38;16.10;54.60
74294;DHT22;62688;59.904;10.738;2022-09-09T07:06:05;16.10;54.50
74294;DHT22;62688;59.904;10.738;2022-09-09T07:08:31;16.20;54.40
74294;DHT22;62688;59.904;10.738;2022-09-09T07:11:04;16.30;54.30
74294;DHT22;62688;59.904;10.738;2022-09-09T07:13:30;16.30;54.20
74294;DHT22;62688;59.904;10.738;2022-09-09T07:16:16;16.30;54.10
74294;DHT22;62688;59.904;10.738;2022-09-09T07:18:43;16.40;53.80
74294;DHT22;62688;59.904;10.738;2022-09-09T07:21:10;16.50;53.70
74294;DHT22;62688;59.904;10.738;2022-09-09T07:23:37;16.50;53.60
74294;DHT22;62688;59.904;10.738;2022-09-09T07:26:11;16.60;53.50
74294;DHT22;62688;59.904;10.738;2022-09-09T07:28:38;16.60;53.30
74294;DHT22;62688;59.904;10.738;2022-09-09T07:31:05;16.60;53.10
74294;DHT22;62688;59.904;10.738;2022-09-09T07:33:32;16.60;53.10
74294;DHT22;62688;59.904;10.738;2022-09-09T07:36:09;16.70;53.00
74294;DHT22;62688;59.904;10.738;2022-09-09T07:38:39;16.70;53.00
74294;DHT22;62688;59.904;10.738;2022-09-09T07:41:10;16.80;52.90
74294;DHT22;62688;59.904;10.738;2022-09-09T07:43:39;16.80;52.70
74294;DHT22;62688;59.904;10.738;2022-09-09T07:46:06;16.80;52.70
74294;DHT22;62688;59.904;10.738;2022-09-09T07:48:32;16.80;52.40
74294;DHT22;62688;59.904;10.738;2022-09-09T07:51:13;16.80;52.30
74294;DHT22;62688;59.904;10.738;2022-09-09T07:53:40;16.80;52.20
74294;DHT22;62688;59.904;10.738;2022-09-09T07:56:10;16.80;52.50
74294;DHT22;62688;59.904;10.738;2022-09-09T07:58:37;16.80;52.10
74294;DHT22;62688;59.904;10.738;2022-09-09T08:01:56;16.80;52.20
74294;DHT22;62688;59.904;10.738;2022-09-09T08:04:06;16.90;52.00
74294;DHT22;62688;59.904;10.738;2022-09-09T08:06:36;16.90;51.90
74294;DHT22;62688;59.904;10.738;2022-09-09T08:09:03;16.90;51.90
74294;DHT22;62688;59.904;10.738;2022-09-09T08:11:30;17.00;51.80
74294;DHT22;62688;59.904;10.738;2022-09-09T08:13:56;17.00;51.70
74294;DHT22;62688;59.904;10.738;2022-09-09T08:16:28;17.00;51.60
74294;DHT22;62688;59.904;10.738;2022-09-09T08:18:55;17.10;51.40
74294;DHT22;62688;59.904;10.738;2022-09-09T08:21:29;17.10;51.50
74294;DHT22;62688;59.904;10.738;2022-09-09T08:23:57;17.10;51.40
74294;DHT22;62688;59.904;10.738;2022-09-09T08:26:26;17.20;51.40
74294;DHT22;62688;59.904;10.738;2022-09-09T08:28:55;17.20;51.30
74294;DHT22;62688;59.904;10.738;2022-09-09T08:31:24;17.20;51.20
74294;DHT22;62688;59.904;10.738;2022-09-09T08:33:50;17.20;51.20
74294;DHT22;62688;59.904;10.738;2022-09-09T08:36:24;17.30;51.20
74294;DHT22;62688;59.904;10.738;2022-09-09T08:38:52;17.30;51.00
74294;DHT22;62688;59.904;10.738;2022-09-09T08:55:01;17.60;50.30
74294;DHT22;62688;59.904;10.738;2022-09-09T08:57:30;17.60;50.20
74294;DHT22;62688;59.904;10.738;2022-09-09T08:59:58;17.60;50.10
74294;DHT22;62688;59.904;10.738;2022-09-09T09:02:55;17.60;50.00
74294;DHT22;62688;59.904;10.738;2022-09-09T09:05:33;17.70;49.80
74294;DHT22;62688;59.904;10.738;2022-09-09T09:10:58;17.70;49.50
74294;DHT22;62688;59.904;10.738;2022-09-09T09:15:59;17.80;49.80
74294;DHT22;62688;59.904;10.738;2022-09-09T09:18:26;17.80;49.60
74294;DHT22;62688;59.904;10.738;2022-09-09T09:23:23;17.80;49.40
74294;DHT22;62688;59.904;10.738;2022-09-09T09:25:52;17.80;49.20
74294;DHT22;62688;59.904;10.738;2022-09-09T09:28:24;17.80;49.20
74294;DHT22;62688;59.904;10.738;2022-09-09T09:33:54;17.90;49.30
74294;DHT22;62688;59.904;10.738;2022-09-09T09:36:24;17.90;49.00
74294;DHT22;62688;59.904;10.738;2022-09-09T09:38:59;17.90;49.20
74294;DHT22;62688;59.904;10.738;2022-09-09T09:41:43;17.90;49.10
74294;DHT22;62688;59.904;10.738;2022-09-09T09:46:49;18.00;49.10
74294;DHT22;62688;59.904;10.738;2022-09-09T09:49:14;18.00;49.60
74294;DHT22;62688;59.904;10.738;2022-09-09T09:51:40;18.10;48.90
74294;DHT22;62688;59.904;10.738;2022-09-09T09:54:28;18.10;48.80
74294;DHT22;62688;59.904;10.738;2022-09-09T09:56:54;18.20;48.70
74294;DHT22;62688;59.904;10.738;2022-09-09T09:59:34;18.20;48.70
74294;DHT22;62688;59.904;10.738;2022-09-09T10:02:31;18.30;48.50
74294;DHT22;62688;59.904;10.738;2022-09-09T10:05:05;18.30;48.20
74294;DHT22;62688;59.904;10.738;2022-09-09T10:07:31;18.40;48.50
74294;DHT22;62688;59.904;10.738;2022-09-09T10:09:58;18.50;48.50
74294;DHT22;62688;59.904;10.738;2022-09-09T10:12:47;18.50;48.40
74294;DHT22;62688;59.904;10.738;2022-09-09T10:15:42;18.50;48.00
74294;DHT22;62688;59.904;10.738;2022-09-09T10:18:18;18.60;48.10
74294;DHT22;62688;59.904;10.738;2022-09-09T10:21:03;18.70;48.10
74294;DHT22;62688;59.904;10.738;2022-09-09T11:00:01;19.30;46.50
74294;DHT22;62688;59.904;10.738;2022-09-09T11:02:29;19.40;46.50
74294;DHT22;62688;59.904;10.738;2022-09-09T11:04:56;19.40;46.50
74294;DHT22;62688;59.904;10.738;2022-09-09T11:07:51;19.50;46.60
74294;DHT22;62688;59.904;10.738;2022-09-09T11:16:23;19.60;46.30
74294;DHT22;62688;59.904;10.738;2022-09-09T11:18:57;19.70;46.00
74294;DHT22;62688;59.904;10.738;2022-09-09T11:22:01;19.70;45.90
74294;DHT22;62688;59.904;10.738;2022-09-09T11:27:00;19.80;46.20
74294;DHT22;62688;59.904;10.738;2022-09-09T11:41:04;20.20;45.60
74294;DHT22;62688;59.904;10.738;2022-09-09T11:43:45;20.30;45.00
74294;DHT22;62688;59.904;10.738;2022-09-09T11:46:13;20.30;45.00
74294;DHT22;62688;59.904;10.738;2022-09-09T11:48:59;20.40;45.10
74294;DHT22;62688;59.904;10.738;2022-09-09T11:51:28;20.50;44.50
74294;DHT22;62688;59.904;10.738;2022-09-09T11:56:45;20.60;44.70
74294;DHT22;62688;59.904;10.738;2022-09-09T11:59:31;20.70;44.30
74294;DHT22;62688;59.904;10.738;2022-09-09T12:02:00;20.70;44.00
74294;DHT22;62688;59.904;10.738;2022-09-09T12:07:03;20.80;44.30
74294;DHT22;62688;59.904;10.738;2022-09-09T12:09:42;20.90;44.00
74294;DHT22;62688;59.904;10.738;2022-09-09T12:17:24;21.70;44.40
74294;DHT22;62688;59.904;10.738;2022-09-09T12:23:34;23.10;43.90
74294;DHT22;62688;59.904;10.738;2022-09-09T12:26:34;23.80;42.10
74294;DHT22;62688;59.904;10.738;2022-09-09T12:31:56;25.30;39.60
74294;DHT22;62688;59.904;10.738;2022-09-09T12:34:42;25.80;39.80
74294;DHT22;62688;59.904;10.738;2022-09-09T12:40:26;27.00;36.70
74294;DHT22;62688;59.904;10.738;2022-09-09T12:42:52;27.70;35.50
74294;DHT22;62688;59.904;10.738;2022-09-09T12:45:26;28.20;36.30
74294;DHT22;62688;59.904;10.738;2022-09-09T12:48:07;28.60;33.80
74294;DHT22;62688;59.904;10.738;2022-09-09T12:50:43;29.10;32.90
74294;DHT22;62688;59.904;10.738;2022-09-09T12:53:17;29.40;32.30
74294;DHT22;62688;59.904;10.738;2022-09-09T12:56:09;29.70;31.90
74294;DHT22;62688;59.904;10.738;2022-09-09T12:58:37;30.10;31.20
74294;DHT22;62688;59.904;10.738;2022-09-09T13:01:05;30.40;30.80
74294;DHT22;62688;59.904;10.738;2022-09-09T13:03:32;30.70;30.20
74294;DHT22;62688;59.904;10.738;2022-09-09T13:06:11;30.80;29.40
74294;DHT22;62688;59.904;10.738;2022-09-09T13:08:37;30.80;27.60
74294;DHT22;62688;59.904;10.738;2022-09-09T13:11:07;30.70;28.50
74294;DHT22;62688;59.904;10.738;2022-09-09T13:13:39;30.50;28.00
74294;DHT22;62688;59.904;10.738;2022-09-09T13:16:16;30.20;27.60
74294;DHT22;62688;59.904;10.738;2022-09-09T13:18:43;29.90;27.70
74294;DHT22;62688;59.904;10.738;2022-09-09T13:21:09;29.70;28.50
74294;DHT22;62688;59.904;10.738;2022-09-09T13:23:36;29.70;28.90
74294;DHT22;62688;59.904;10.738;2022-09-09T13:26:04;29.70;29.10
74294;DHT22;62688;59.904;10.738;2022-09-09T13:28:32;29.90;29.00
74294;DHT22;62688;59.904;10.738;2022-09-09T13:31:02;30.10;28.70
74294;DHT22;62688;59.904;10.738;2022-09-09T13:33:37;30.30;28.00
74294;DHT22;62688;59.904;10.738;2022-09-09T13:36:05;30.40;27.50
74294;DHT22;62688;59.904;10.738;2022-09-09T13:38:36;30.40;27.60
74294;DHT22;62688;59.904;10.738;2022-09-09T13:41:08;30.20;27.10
74294;DHT22;62688;59.904;10.738;2022-09-09T13:43:37;30.10;27.20
74294;DHT22;62688;59.904;10.738;2022-09-09T13:46:39;30.10;27.40
74294;DHT22;62688;59.904;10.738;2022-09-09T13:51:43;29.70;26.90
74294;DHT22;62688;59.904;10.738;2022-09-09T13:54:14;29.40;27.10
74294;DHT22;62688;59.904;10.738;2022-09-09T13:56:40;29.00;27.20
74294;DHT22;62688;59.904;10.738;2022-09-09T13:59:14;28.70;27.50
74294;DHT22;62688;59.904;10.738;2022-09-09T14:01:40;28.40;27.70
74294;DHT22;62688;59.904;10.738;2022-09-09T14:04:07;28.00;28.00
74294;DHT22;62688;59.904;10.738;2022-09-09T14:06:34;27.70;28.20
74294;DHT22;62688;59.904;10.738;2022-09-09T14:09:02;27.40;28.40
74294;DHT22;62688;59.904;10.738;2022-09-09T14:11:28;27.20;28.70
74294;DHT22;62688;59.904;10.738;2022-09-09T14:13:57;26.90;28.90
74294;DHT22;62688;59.904;10.738;2022-09-09T14:16:22;26.60;29.10
74294;DHT22;62688;59.904;10.738;2022-09-09T14:18:48;26.40;29.30
74294;DHT22;62688;59.904;10.738;2022-09-09T14:21:14;26.20;29.50
74294;DHT22;62688;59.904;10.738;2022-09-09T14:23:41;25.90;29.50
74294;DHT22;62688;59.904;10.738;2022-09-09T14:26:06;25.80;29.80
74294;DHT22;62688;59.904;10.738;2022-09-09T14:28:33;25.60;30.00
74294;DHT22;62688;59.904;10.738;2022-09-09T14:31:00;25.50;30.20
74294;DHT22;62688;59.904;10.738;2022-09-09T14:33:26;25.40;30.50
74294;DHT22;62688;59.904;10.738;2022-09-09T14:35:58;25.30;30.70
74294;DHT22;62688;59.904;10.738;2022-09-09T14:38:24;25.20;30.80
74294;DHT22;62688;59.904;10.738;2022-09-09T14:40:50;25.00;30.80
74294;DHT22;62688;59.904;10.738;2022-09-09T14:43:16;24.90;30.90
74294;DHT22;62688;59.904;10.738;2022-09-09T14:45:41;24.70;31.10
74294;DHT22;62688;59.904;10.738;2022-09-09T14:48:08;24.50;31.30
74294;DHT22;62688;59.904;10.738;2022-09-09T14:50:34;24.30;31.50
74294;DHT22;62688;59.904;10.738;2022-09-09T14:53:02;24.20;31.80
74294;DHT22;62688;59.904;10.738;2022-09-09T14:55:27;23.90;32.00
74294;DHT22;62688;59.904;10.738;2022-09-09T14:57:54;23.80;32.20
74294;DHT22;62688;59.904;10.738;2022-09-09T15:00:20;23.60;32.50
74294;DHT22;62688;59.904;10.738;2022-09-09T15:02:45;23.40;32.70
74294;DHT22;62688;59.904;10.738;2022-09-09T15:05:11;23.30;32.90
74294;DHT22;62688;59.904;10.738;2022-09-09T15:07:37;23.10;33.10
74294;DHT22;62688;59.904;10.738;2022-09-09T15:10:07;23.00;33.40
74294;DHT22;62688;59.904;10.738;2022-09-09T15:12:34;22.80;33.60
74294;DHT22;62688;59.904;10.738;2022-09-09T15:15:00;22.70;33.70
74294;DHT22;62688;59.904;10.738;2022-09-09T15:17:26;22.60;34.20
74294;DHT22;62688;59.904;10.738;2022-09-09T15:19:52;22.40;34.30
74294;DHT22;62688;59.904;10.738;2022-09-09T15:22:18;22.30;34.70
74294;DHT22;62688;59.904;10.738;2022-09-09T15:24:44;22.20;34.90
74294;DHT22;62688;59.904;10.738;2022-09-09T15:27:10;22.10;35.30
74294;DHT22;62688;59.904;10.738;2022-09-09T15:29:35;22.00;35.40
74294;DHT22;62688;59.904;10.738;2022-09-09T15:32:01;21.90;35.50
74294;DHT22;62688;59.904;10.738;2022-09-09T15:34:27;21.80;35.80
74294;DHT22;62688;59.904;10.738;2022-09-09T15:36:52;21.70;35.80
74294;DHT22;62688;59.904;10.738;2022-09-09T15:39:19;21.60;35.90
74294;DHT22;62688;59.904;10.738;2022-09-09T15:41:46;21.60;36.70
74294;DHT22;62688;59.904;10.738;2022-09-09T15:44:12;21.50;36.20
74294;DHT22;62688;59.904;10.738;2022-09-09T15:47:04;21.40;36.40
74294;DHT22;62688;59.904;10.738;2022-09-09T15:49:30;21.30;36.70
74294;DHT22;62688;59.904;10.738;2022-09-09T15:51:57;21.30;36.70
74294;DHT22;62688;59.904;10.738;2022-09-09T15:54:25;21.20;37.00
74294;DHT22;62688;59.904;10.738;2022-09-09T15:56:58;21.20;37.10
74294;DHT22;62688;59.904;10.738;2022-09-09T15:59:26;21.20;37.30
74294;DHT22;62688;59.904;10.738;2022-09-09T16:01:56;21.10;37.40
74294;DHT22;62688;59.904;10.738;2022-09-09T16:04:23;21.10;37.40
74294;DHT22;62688;59.904;10.738;2022-09-09T16:06:55;21.00;37.70
74294;DHT22;62688;59.904;10.738;2022-09-09T16:09:23;21.00;37.80
74294;DHT22;62688;59.904;10.738;2022-09-09T16:11:48;21.00;37.90
74294;DHT22;62688;59.904;10.738;2022-09-09T16:14:14;20.90;37.90
74294;DHT22;62688;59.904;10.738;2022-09-09T16:16:41;20.90;38.00
74294;DHT22;62688;59.904;10.738;2022-09-09T16:19:09;20.90;38.00
74294;DHT22;62688;59.904;10.738;2022-09-09T16:21:39;20.80;37.90
74294;DHT22;62688;59.904;10.738;2022-09-09T16:24:06;20.80;38.00
74294;DHT22;62688;59.904;10.738;2022-09-09T16:26:34;20.80;38.10
74294;DHT22;62688;59.904;10.738;2022-09-09T16:29:01;20.80;38.20
74294;DHT22;62688;59.904;10.738;2022-09-09T16:31:28;20.80;38.30
74294;DHT22;62688;59.904;10.738;2022-09-09T16:33:55;20.70;38.30
74294;DHT22;62688;59.904;10.738;2022-09-09T16:36:31;20.70;38.40
74294;DHT22;62688;59.904;10.738;2022-09-09T16:39:01;20.60;38.70
74294;DHT22;62688;59.904;10.738;2022-09-09T16:41:28;20.60;38.70
74294;DHT22;62688;59.904;10.738;2022-09-09T16:43:56;20.60;38.70
74294;DHT22;62688;59.904;10.738;2022-09-09T16:46:23;20.60;38.90
74294;DHT22;62688;59.904;10.738;2022-09-09T16:48:50;20.50;39.00
74294;DHT22;62688;59.904;10.738;2022-09-09T16:51:20;20.60;39.10
74294;DHT22;62688;59.904;10.738;2022-09-09T16:53:46;20.50;39.30
74294;DHT22;62688;59.904;10.738;2022-09-09T16:56:17;20.50;39.20
74294;DHT22;62688;59.904;10.738;2022-09-09T16:58:49;20.40;39.20
74294;DHT22;62688;59.904;10.738;2022-09-09T17:01:15;20.40;39.20
74294;DHT22;62688;59.904;10.738;2022-09-09T17:03:41;20.40;39.20
74294;DHT22;62688;59.904;10.738;2022-09-09T17:06:11;20.30;39.40
74294;DHT22;62688;59.904;10.738;2022-09-09T17:08:41;20.20;39.80
74294;DHT22;62688;59.904;10.738;2022-09-09T17:11:19;20.30;40.00
74294;DHT22;62688;59.904;10.738;2022-09-09T17:13:46;20.20;40.20
74294;DHT22;62688;59.904;10.738;2022-09-09T17:16:13;20.10;40.10
74294;DHT22;62688;59.904;10.738;2022-09-09T17:18:39;20.10;40.50
74294;DHT22;62688;59.904;10.738;2022-09-09T17:21:13;20.00;40.50
74294;DHT22;62688;59.904;10.738;2022-09-09T17:23:39;20.00;40.90
74294;DHT22;62688;59.904;10.738;2022-09-09T17:26:06;20.00;40.80
74294;DHT22;62688;59.904;10.738;2022-09-09T17:28:34;19.90;40.90
74294;DHT22;62688;59.904;10.738;2022-09-09T17:31:00;19.90;41.00
74294;DHT22;62688;59.904;10.738;2022-09-09T17:33:27;19.80;41.10
74294;DHT22;62688;59.904;10.738;2022-09-09T17:35:59;19.80;41.30
74294;DHT22;62688;59.904;10.738;2022-09-09T17:38:27;19.80;41.50
74294;DHT22;62688;59.904;10.738;2022-09-09T17:41:11;19.70;41.50
74294;DHT22;62688;59.904;10.738;2022-09-09T17:43:39;19.70;41.80
74294;DHT22;62688;59.904;10.738;2022-09-09T17:46:14;19.70;41.70
74294;DHT22;62688;59.904;10.738;2022-09-09T17:48:40;19.60;41.90
74294;DHT22;62688;59.904;10.738;2022-09-09T17:51:08;19.60;41.80
74294;DHT22;62688;59.904;10.738;2022-09-09T17:53:43;19.60;42.10
74294;DHT22;62688;59.904;10.738;2022-09-09T17:56:10;19.50;42.40
74294;DHT22;62688;59.904;10.738;2022-09-09T17:58:37;19.50;42.30
74294;DHT22;62688;59.904;10.738;2022-09-09T18:01:08;19.40;42.60
74294;DHT22;62688;59.904;10.738;2022-09-09T18:03:36;19.30;42.60
74294;DHT22;62688;59.904;10.738;2022-09-09T18:06:07;19.30;42.70
74294;DHT22;62688;59.904;10.738;2022-09-09T18:08:34;19.20;43.00
74294;DHT22;62688;59.904;10.738;2022-09-09T18:11:01;19.20;43.00
74294;DHT22;62688;59.904;10.738;2022-09-09T18:13:27;19.10;43.00